createdAt,value
2022-11-05T00:00:46.782Z,3.50
2022-11-05T00:03:32.316Z,3.55
2022-11-05T00:06:17.844Z,3.10
2022-11-05T00:09:03.447Z,2.80
2022-11-05T00:11:48.891Z,3.15
2022-11-05T00:14:34.303Z,3.08
2022-11-05T00:17:01.673Z,3.22
2022-11-05T00:19:28.763Z,3.13
2022-11-05T00:22:14.300Z,2.90
2022-11-05T00:25:00.002Z,3.42
2022-11-05T00:27:27.118Z,3.22
2022-11-05T00:29:54.024Z,3.35
2022-11-05T00:32:22.899Z,3.05
2022-11-05T00:34:49.938Z,4.47
2022-11-05T00:37:16.984Z,4.18
2022-11-05T00:39:44.040Z,4.13
2022-11-05T00:42:29.607Z,4.30
2022-11-05T00:45:02.641Z,4.07
2022-11-05T00:47:52.039Z,4.00
2022-11-05T00:50:20.543Z,3.63
2022-11-05T00:53:01.597Z,4.38
2022-11-05T00:55:33.489Z,3.95
2022-11-05T00:58:02.433Z,4.00
2022-11-05T01:00:32.011Z,3.38
2022-11-05T01:03:01.535Z,3.63
2022-11-05T01:05:30.560Z,3.05
2022-11-05T01:07:57.880Z,3.63
2022-11-05T01:10:25.486Z,3.42
2022-11-05T01:12:53.001Z,3.15
2022-11-05T01:15:20.849Z,3.60
2022-11-05T01:17:48.119Z,4.00
2022-11-05T01:20:15.413Z,4.15
2022-11-05T01:22:42.807Z,3.58
2022-11-05T01:25:10.031Z,3.72
2022-11-05T01:27:37.943Z,3.97
2022-11-05T01:30:07.504Z,3.80
2022-11-05T01:32:36.400Z,3.17
2022-11-05T01:35:09.019Z,3.40
2022-11-05T01:37:36.258Z,4.00
2022-11-05T01:40:04.157Z,4.13
2022-11-05T01:42:33.148Z,3.88
2022-11-05T01:45:03.925Z,3.75
2022-11-05T01:47:39.049Z,3.70
2022-11-05T01:50:16.328Z,4.15
2022-11-05T01:52:43.673Z,3.70
2022-11-05T01:55:13.714Z,4.18
2022-11-05T01:57:41.257Z,3.75
2022-11-05T02:00:08.882Z,4.25
2022-11-05T02:02:40.307Z,3.72
2022-11-05T02:05:11.262Z,4.30
2022-11-05T02:07:38.445Z,4.32
2022-11-05T02:10:14.714Z,4.10
2022-11-05T02:12:46.946Z,4.28
2022-11-05T02:16:01.649Z,3.92
2022-11-05T02:18:51.904Z,4.38
2022-11-05T02:22:02.188Z,4.35
2022-11-05T02:25:04.890Z,4.40
2022-11-05T02:28:02.511Z,4.55
2022-11-05T02:31:17.687Z,4.03
2022-11-05T02:34:03.525Z,4.13
2022-11-05T02:37:05.667Z,4.32
2022-11-05T02:39:59.075Z,4.88
2022-11-05T02:42:32.018Z,4.93
2022-11-05T02:45:04.858Z,5.00
2022-11-05T02:47:43.665Z,5.13
2022-11-05T02:50:27.173Z,5.30
2022-11-05T02:53:02.952Z,5.50
2022-11-05T02:55:45.275Z,4.57
2022-11-05T02:58:12.392Z,5.28
2022-11-05T03:00:58.144Z,5.13
2022-11-05T03:03:43.246Z,4.97
2022-11-05T03:06:31.376Z,5.40
2022-11-05T03:09:10.344Z,5.55
2022-11-05T03:11:44.625Z,5.45
2022-11-05T03:14:17.307Z,5.57
2022-11-05T03:16:55.353Z,5.20
2022-11-05T03:19:39.316Z,5.00
2022-11-05T03:22:13.891Z,6.63
2022-11-05T03:24:49.066Z,5.97
2022-11-05T03:27:26.561Z,5.13
2022-11-05T03:30:01.144Z,5.20
2022-11-05T03:32:34.130Z,4.68
2022-11-05T03:37:51.289Z,4.97
2022-11-05T03:40:22.194Z,4.15
2022-11-05T03:42:54.033Z,5.13
2022-11-05T03:45:44.192Z,5.28
2022-11-05T03:48:13.161Z,4.93
2022-11-05T03:50:53.434Z,4.93
2022-11-05T03:53:28.321Z,5.82
2022-11-05T03:56:05.659Z,6.03
2022-11-05T03:58:33.208Z,6.28
2022-11-05T04:01:02.622Z,5.80
2022-11-05T04:03:36.317Z,5.97
2022-11-05T04:06:23.481Z,5.78
2022-11-05T04:09:09.409Z,6.20
2022-11-05T04:11:55.172Z,5.45
2022-11-05T04:14:22.305Z,5.15
2022-11-05T04:17:08.744Z,5.20
2022-11-05T04:19:55.716Z,5.90
2022-11-05T04:22:42.798Z,5.78
2022-11-05T04:25:10.767Z,5.40
2022-11-05T04:27:38.044Z,5.20
2022-11-05T04:30:20.902Z,5.57
2022-11-05T04:33:06.378Z,6.47
2022-11-05T04:35:38.711Z,6.22
2022-11-05T04:38:09.371Z,5.20
2022-11-05T04:40:37.244Z,5.80
2022-11-05T04:43:07.320Z,6.28
2022-11-05T04:45:37.682Z,5.47
2022-11-05T04:48:05.164Z,5.60
2022-11-05T04:50:33.083Z,6.15
2022-11-05T04:53:00.282Z,5.78
2022-11-05T04:55:27.794Z,4.80
2022-11-05T04:57:54.978Z,5.22
2022-11-05T05:00:23.855Z,5.63
2022-11-05T05:02:50.886Z,6.07
2022-11-05T05:05:18.250Z,5.80
2022-11-05T05:07:45.204Z,5.60
2022-11-05T05:10:13.100Z,5.53
2022-11-05T05:12:40.244Z,5.45
2022-11-05T05:15:07.560Z,4.97
2022-11-05T05:17:34.534Z,4.28
2022-11-05T05:20:20.031Z,4.93
2022-11-05T05:22:54.486Z,4.50
2022-11-05T05:25:22.441Z,4.68
2022-11-05T05:27:49.432Z,3.92
2022-11-05T05:30:16.679Z,4.47
2022-11-05T05:32:43.891Z,4.38
2022-11-05T05:35:11.018Z,4.60
2022-11-05T05:37:38.674Z,4.93
2022-11-05T05:40:06.193Z,5.20
2022-11-05T05:42:35.391Z,5.50
2022-11-05T05:45:06.367Z,5.00
2022-11-05T05:47:33.446Z,4.72
2022-11-05T05:50:00.441Z,4.45
2022-11-05T05:52:27.430Z,3.80
2022-11-05T05:54:54.384Z,3.80
2022-11-05T05:57:21.424Z,4.10
2022-11-05T05:59:48.449Z,4.20
2022-11-05T06:02:16.064Z,5.00
2022-11-05T06:04:43.172Z,4.38
2022-11-05T06:07:10.426Z,4.40
2022-11-05T06:09:37.773Z,4.47
2022-11-05T06:12:05.200Z,4.38
2022-11-05T06:14:32.298Z,4.88
2022-11-05T06:16:59.341Z,4.07
2022-11-05T06:19:26.629Z,3.92
2022-11-05T06:21:53.694Z,5.10
2022-11-05T06:24:21.447Z,4.43
2022-11-05T06:26:48.481Z,4.85
2022-11-05T06:29:15.520Z,4.18
2022-11-05T06:31:42.776Z,4.22
2022-11-05T06:34:09.900Z,4.35
2022-11-05T06:36:36.961Z,4.45
2022-11-05T06:39:04.104Z,4.13
2022-11-05T06:41:31.228Z,4.43
2022-11-05T06:43:58.204Z,4.32
2022-11-05T06:46:25.273Z,4.05
2022-11-05T06:48:52.317Z,4.90
2022-11-05T06:51:19.364Z,4.05
2022-11-05T06:53:46.565Z,4.68
2022-11-05T06:56:13.563Z,4.40
2022-11-05T06:58:40.685Z,4.30
2022-11-05T07:01:10.053Z,4.38
2022-11-05T07:03:39.389Z,4.40
2022-11-05T07:06:07.447Z,4.38
2022-11-05T07:08:36.554Z,4.68
2022-11-05T07:11:04.626Z,4.50
2022-11-05T07:13:32.081Z,4.18
2022-11-05T07:15:59.219Z,4.22
2022-11-05T07:18:26.359Z,4.85
2022-11-05T07:20:53.347Z,4.28
2022-11-05T07:23:20.559Z,3.95
2022-11-05T07:25:47.615Z,4.65
2022-11-05T07:28:14.714Z,4.18
2022-11-05T07:30:41.832Z,4.53
2022-11-05T07:33:18.572Z,4.25
2022-11-05T07:35:45.602Z,4.80
2022-11-05T07:38:12.687Z,4.18
2022-11-05T07:40:39.729Z,4.20
2022-11-05T07:43:06.735Z,3.60
2022-11-05T07:45:33.797Z,4.65
2022-11-05T07:48:03.764Z,4.03
2022-11-05T07:50:38.528Z,4.30
2022-11-05T07:53:08.122Z,3.97
2022-11-05T07:55:36.328Z,4.20
2022-11-05T07:58:04.171Z,4.22
2022-11-05T08:00:31.734Z,3.97
2022-11-05T08:03:09.357Z,4.30
2022-11-05T08:05:38.857Z,3.90
2022-11-05T08:08:08.075Z,4.57
2022-11-05T08:10:36.111Z,4.25
2022-11-05T08:13:03.291Z,4.25
2022-11-05T08:15:30.884Z,4.40
2022-11-05T08:17:59.511Z,4.65
2022-11-05T08:20:26.883Z,4.57
2022-11-05T08:22:54.849Z,4.90
2022-11-05T08:25:22.054Z,4.53
2022-11-05T08:27:56.446Z,4.13
2022-11-05T08:30:24.153Z,4.53
2022-11-05T08:32:51.614Z,3.97
2022-11-05T08:35:18.785Z,3.92
2022-11-05T08:37:45.686Z,4.47
2022-11-05T08:40:12.861Z,4.80
2022-11-05T08:42:39.894Z,4.68
2022-11-05T08:45:07.675Z,4.63
2022-11-05T08:47:44.050Z,4.72
2022-11-05T08:50:11.905Z,5.03
2022-11-05T08:52:41.043Z,4.82
2022-11-05T08:55:08.598Z,4.68
2022-11-05T08:57:35.577Z,4.90
2022-11-05T09:00:02.721Z,4.38
2022-11-05T09:02:31.208Z,4.00
2022-11-05T09:04:58.360Z,4.20
2022-11-05T09:07:25.559Z,4.32
2022-11-05T09:09:52.567Z,4.53
2022-11-05T09:12:20.959Z,3.78
2022-11-05T09:14:48.225Z,4.07
2022-11-05T09:17:20.684Z,4.70
2022-11-05T09:19:48.214Z,4.20
2022-11-05T09:22:15.589Z,5.25
2022-11-05T09:24:43.604Z,4.90
2022-11-05T09:27:13.376Z,5.05
2022-11-05T09:29:41.748Z,5.65
2022-11-05T09:32:09.737Z,4.75
2022-11-05T09:34:42.345Z,4.85
2022-11-05T09:37:09.365Z,5.75
2022-11-05T09:39:36.412Z,4.82
2022-11-05T09:42:08.162Z,4.72
2022-11-05T09:44:48.015Z,4.57
2022-11-05T09:47:28.154Z,4.85
2022-11-05T09:49:57.555Z,4.88
2022-11-05T09:52:28.163Z,4.82
2022-11-05T09:54:56.302Z,4.50
2022-11-05T09:57:31.011Z,4.00
2022-11-05T10:00:03.806Z,4.15
2022-11-05T10:02:37.784Z,4.65
2022-11-05T10:05:09.929Z,4.70
2022-11-05T10:07:51.477Z,4.78
2022-11-05T10:10:47.456Z,5.30
2022-11-05T10:13:33.148Z,4.57
2022-11-05T10:16:19.021Z,5.80
2022-11-05T10:18:52.753Z,5.82
2022-11-05T10:21:37.838Z,5.88
2022-11-05T10:24:21.458Z,6.15
2022-11-05T10:26:52.615Z,5.65
2022-11-05T10:29:35.147Z,6.40
2022-11-05T10:32:05.857Z,5.97
2022-11-05T10:37:01.812Z,6.68
2022-11-05T10:39:31.375Z,6.82
2022-11-05T10:42:36.808Z,6.75
2022-11-05T10:45:34.126Z,7.10
2022-11-05T10:48:43.452Z,7.18
2022-11-05T10:51:11.800Z,6.45
2022-11-05T10:53:40.031Z,7.00
2022-11-05T10:56:29.000Z,5.93
2022-11-05T10:58:58.791Z,7.53
2022-11-05T11:01:28.248Z,7.47
2022-11-05T11:04:16.601Z,6.60
2022-11-05T11:06:49.834Z,6.63
2022-11-05T11:09:27.095Z,5.95
2022-11-05T11:12:20.701Z,7.03
2022-11-05T11:15:02.263Z,6.13
2022-11-05T11:17:32.848Z,6.57
2022-11-05T11:20:18.808Z,6.05
2022-11-05T11:23:13.119Z,7.22
2022-11-05T11:25:51.745Z,6.50
2022-11-05T11:28:47.732Z,6.45
2022-11-05T11:31:18.836Z,6.18
2022-11-05T11:33:49.598Z,5.97
2022-11-05T11:38:46.308Z,6.20
2022-11-05T11:41:36.309Z,6.25
2022-11-05T11:44:10.243Z,8.35
2022-11-05T11:46:37.655Z,7.25
2022-11-05T11:49:07.054Z,6.90
2022-11-05T11:51:40.772Z,6.38
2022-11-05T11:54:19.974Z,6.55
2022-11-05T11:56:48.844Z,6.15
2022-11-05T11:59:53.790Z,6.32
2022-11-05T12:02:39.254Z,7.28
2022-11-05T12:05:19.854Z,6.70
2022-11-05T12:07:53.985Z,6.40
2022-11-05T12:10:45.380Z,6.60
2022-11-05T12:13:17.963Z,7.60
2022-11-05T12:15:57.967Z,7.82
2022-11-05T12:18:33.945Z,8.30
2022-11-05T12:21:48.043Z,8.55
2022-11-05T12:24:32.543Z,7.55
2022-11-05T12:27:17.864Z,7.43
2022-11-05T12:30:10.713Z,6.90
2022-11-05T12:32:49.390Z,6.55
2022-11-05T12:35:31.678Z,6.90
2022-11-05T12:38:36.318Z,6.60
2022-11-05T12:41:37.450Z,6.95
2022-11-05T12:44:36.750Z,7.53
2022-11-05T12:47:09.478Z,7.13
2022-11-05T12:50:02.326Z,7.90
2022-11-05T12:52:50.686Z,8.10
2022-11-05T12:55:27.359Z,7.55
2022-11-05T12:58:01.334Z,7.95
2022-11-05T13:00:30.219Z,7.88
2022-11-05T13:03:28.285Z,7.00
2022-11-05T13:06:24.341Z,6.93
2022-11-05T13:09:03.509Z,6.57
2022-11-05T13:11:48.920Z,6.75
2022-11-05T13:14:24.096Z,6.95
2022-11-05T13:16:59.028Z,7.07
2022-11-05T13:19:35.895Z,7.25
2022-11-05T13:22:15.151Z,7.80
2022-11-05T13:25:06.149Z,7.65
2022-11-05T13:28:05.493Z,7.05
2022-11-05T13:30:41.607Z,7.72
2022-11-05T13:33:18.023Z,7.75
2022-11-05T13:36:27.029Z,7.40
2022-11-05T13:39:06.973Z,8.38
2022-11-05T13:41:42.580Z,7.90
2022-11-05T13:44:54.439Z,7.95
2022-11-05T13:47:27.050Z,8.77
2022-11-05T13:50:23.702Z,9.18
2022-11-05T13:53:27.597Z,8.73
2022-11-05T13:56:22.192Z,10.13
2022-11-05T13:59:17.067Z,8.57
2022-11-05T14:01:50.322Z,9.32
2022-11-05T14:04:34.273Z,9.05
2022-11-05T14:07:15.843Z,8.93
2022-11-05T14:09:44.050Z,8.75
2022-11-05T14:12:28.441Z,9.68
2022-11-05T14:15:18.044Z,9.20
2022-11-05T14:18:00.238Z,9.15
2022-11-05T14:20:33.184Z,8.52
2022-11-05T14:23:25.300Z,9.75
2022-11-05T14:26:17.627Z,9.40
2022-11-05T14:28:51.961Z,8.98
2022-11-05T14:31:19.000Z,9.45
2022-11-05T14:34:05.177Z,9.98
2022-11-05T14:36:35.742Z,9.95
2022-11-05T14:42:28.949Z,9.95
2022-11-05T14:44:59.314Z,9.85
2022-11-05T14:47:40.828Z,10.15
2022-11-05T14:50:18.836Z,8.75
2022-11-05T14:53:03.139Z,9.98
2022-11-05T14:55:34.493Z,10.05
2022-11-05T14:58:04.708Z,9.48
2022-11-05T15:00:32.494Z,10.18
2022-11-05T15:03:02.103Z,10.85
2022-11-05T15:05:33.509Z,10.90
2022-11-05T15:08:24.784Z,9.77
2022-11-05T15:10:56.978Z,10.15
2022-11-05T15:13:33.722Z,10.57
2022-11-05T15:16:00.710Z,11.07
2022-11-05T15:18:38.917Z,11.23
2022-11-05T15:21:10.844Z,12.20
2022-11-05T15:23:45.331Z,11.68
2022-11-05T15:26:38.695Z,11.85
2022-11-05T15:29:19.768Z,11.30
2022-11-05T15:31:47.992Z,10.43
2022-11-05T15:34:17.726Z,10.85
2022-11-05T15:36:57.494Z,10.70
2022-11-05T15:39:43.846Z,10.15
2022-11-05T15:42:25.526Z,15.32
2022-11-05T15:44:55.417Z,10.88
2022-11-05T15:47:28.562Z,11.05
2022-11-05T15:49:59.174Z,10.02
2022-11-05T15:55:14.469Z,11.73
2022-11-05T15:57:50.459Z,10.10
2022-11-05T16:00:26.355Z,11.05
2022-11-05T16:03:28.080Z,10.40
2022-11-05T16:05:55.641Z,12.02
2022-11-05T16:08:28.231Z,11.60
2022-11-05T16:10:59.095Z,11.35
2022-11-05T16:13:32.547Z,12.32
2022-11-05T16:16:05.782Z,13.18
2022-11-05T16:18:40.532Z,13.00
2022-11-05T16:21:21.313Z,11.82
2022-11-05T16:23:49.300Z,12.88
2022-11-05T16:29:40.307Z,11.90
2022-11-05T16:32:17.145Z,11.10
2022-11-05T16:34:50.983Z,11.52
2022-11-05T16:37:20.847Z,11.15
2022-11-05T16:39:48.066Z,11.63
2022-11-05T16:42:27.004Z,11.30
2022-11-05T16:44:55.929Z,12.10
2022-11-05T16:47:26.451Z,12.57
2022-11-05T16:49:53.490Z,11.88
2022-11-05T16:52:20.522Z,11.93
2022-11-05T16:54:47.853Z,11.27
2022-11-05T16:57:25.973Z,12.50
2022-11-05T16:59:57.304Z,12.32
2022-11-05T17:02:24.616Z,13.95
2022-11-05T17:04:52.485Z,13.60
2022-11-05T17:07:19.442Z,13.13
2022-11-05T17:09:46.595Z,12.45
2022-11-05T17:12:14.981Z,12.18
2022-11-05T17:14:42.337Z,12.10
2022-11-05T17:17:10.818Z,11.93
2022-11-05T17:19:42.587Z,12.25
2022-11-05T17:22:09.791Z,13.23
2022-11-05T17:24:39.107Z,11.65
2022-11-05T17:27:06.309Z,12.02
2022-11-05T17:29:33.452Z,13.18
2022-11-05T17:32:00.498Z,13.18
2022-11-05T17:34:27.593Z,11.98
2022-11-05T17:36:54.746Z,11.98
2022-11-05T17:39:24.858Z,12.82
2022-11-05T17:41:55.772Z,13.35
2022-11-05T17:44:23.059Z,12.70
2022-11-05T17:46:51.380Z,12.70
2022-11-05T17:49:18.507Z,13.35
2022-11-05T17:51:45.547Z,12.35
2022-11-05T17:54:12.616Z,14.60
2022-11-05T17:56:44.799Z,14.60
2022-11-05T17:59:12.038Z,14.63
2022-11-05T18:01:43.707Z,14.00
2022-11-05T18:04:11.242Z,14.57
2022-11-05T18:06:39.554Z,14.82
2022-11-05T18:09:08.160Z,15.00
2022-11-05T18:11:38.321Z,15.88
2022-11-05T18:14:05.715Z,15.02
2022-11-05T18:16:33.430Z,15.13
2022-11-05T18:19:00.839Z,15.05
2022-11-05T18:21:28.504Z,16.42
2022-11-05T18:23:55.569Z,15.05
2022-11-05T18:26:24.479Z,15.57
2022-11-05T18:28:51.654Z,16.38
2022-11-05T18:31:20.940Z,15.85
2022-11-05T18:33:49.507Z,15.68
2022-11-05T18:36:18.944Z,15.05
2022-11-05T18:38:46.675Z,16.02
2022-11-05T18:41:14.142Z,15.48
2022-11-05T18:43:41.236Z,15.52
2022-11-05T18:46:08.909Z,15.20
2022-11-05T18:48:36.711Z,16.50
2022-11-05T18:51:15.643Z,16.60
2022-11-05T18:53:43.451Z,16.10
2022-11-05T18:56:17.700Z,15.68
2022-11-05T18:58:45.539Z,15.25
2022-11-05T19:01:17.912Z,16.85
2022-11-05T19:03:45.677Z,16.92
2022-11-05T19:06:15.009Z,16.52
2022-11-05T19:08:43.635Z,15.02
2022-11-05T19:11:15.169Z,16.77
2022-11-05T19:13:43.275Z,15.77
2022-11-05T19:16:14.712Z,16.67
2022-11-05T19:18:42.024Z,16.73
2022-11-05T19:21:20.337Z,15.55
2022-11-05T19:23:48.188Z,16.73
2022-11-05T19:26:21.785Z,18.50
2022-11-05T19:28:51.747Z,17.48
2022-11-05T19:31:22.164Z,15.73
2022-11-05T19:33:51.723Z,16.27
2022-11-05T19:36:20.815Z,14.85
2022-11-05T19:38:49.761Z,16.40
2022-11-05T19:41:20.023Z,16.23
2022-11-05T19:43:48.164Z,15.68
2022-11-05T19:46:18.517Z,16.42
2022-11-05T19:48:46.236Z,16.33
2022-11-05T19:51:16.927Z,16.92
2022-11-05T19:56:17.698Z,17.75
2022-11-05T19:58:45.415Z,16.13
2022-11-05T20:01:14.278Z,16.83
2022-11-05T20:03:53.601Z,17.20
2022-11-05T20:06:23.823Z,15.13
2022-11-05T20:09:19.980Z,17.40
2022-11-05T20:11:39.451Z,16.60
2022-11-05T20:14:09.513Z,16.55
2022-11-05T20:16:40.552Z,16.67
2022-11-05T20:19:13.549Z,18.10
2022-11-05T20:21:41.328Z,17.00
2022-11-05T20:24:09.739Z,17.50
2022-11-05T20:26:36.828Z,18.27
2022-11-05T20:29:04.337Z,17.52
2022-11-05T20:31:31.502Z,16.73
2022-11-05T20:33:58.899Z,16.75
2022-11-05T20:36:26.189Z,16.80
2022-11-05T20:38:55.761Z,16.65
2022-11-05T20:41:23.117Z,16.40
2022-11-05T20:43:51.195Z,16.95
2022-11-05T20:46:20.370Z,17.05
2022-11-05T20:48:47.368Z,15.38
2022-11-05T20:51:20.266Z,16.08
2022-11-05T20:53:48.276Z,17.02
2022-11-05T20:56:22.852Z,16.52
2022-11-05T20:58:50.681Z,16.05
2022-11-05T21:01:18.845Z,15.30
2022-11-05T21:03:47.081Z,16.30
2022-11-05T21:06:14.191Z,16.20
2022-11-05T21:08:41.588Z,15.50
2022-11-05T21:11:10.253Z,15.05
2022-11-05T21:13:38.067Z,16.25
2022-11-05T21:16:07.321Z,17.23
2022-11-05T21:18:37.017Z,16.83
2022-11-05T21:21:13.119Z,17.48
2022-11-05T21:23:41.775Z,16.45
2022-11-05T21:26:11.705Z,16.85
2022-11-05T21:28:40.353Z,17.30
2022-11-05T21:31:08.905Z,16.60
2022-11-05T21:33:36.309Z,17.38
2022-11-05T21:36:11.906Z,15.55
2022-11-05T21:38:41.001Z,17.08
2022-11-05T21:41:10.092Z,16.23
2022-11-05T21:43:39.666Z,17.05
2022-11-05T21:46:06.606Z,16.70
2022-11-05T21:48:34.070Z,16.70
2022-11-05T21:51:19.704Z,17.98
2022-11-05T21:54:05.363Z,17.55
2022-11-05T21:56:51.307Z,16.60
2022-11-05T21:59:39.994Z,16.73
2022-11-05T22:02:09.022Z,16.95
2022-11-05T22:04:38.427Z,16.30
2022-11-05T22:07:06.717Z,17.23
2022-11-05T22:09:34.114Z,17.33
2022-11-05T22:12:01.587Z,17.35
2022-11-05T22:14:28.960Z,17.30
2022-11-05T22:16:56.742Z,17.70
2022-11-05T22:19:24.414Z,18.65
2022-11-05T22:21:51.437Z,18.27
2022-11-05T22:24:19.505Z,17.95
2022-11-05T22:26:46.758Z,18.38
2022-11-05T22:29:14.136Z,18.88
2022-11-05T22:31:41.253Z,19.27
2022-11-05T22:34:09.924Z,18.13
2022-11-05T22:36:37.078Z,17.35
2022-11-05T22:39:05.382Z,18.33
2022-11-05T22:41:32.661Z,18.35
2022-11-05T22:43:59.787Z,17.30
2022-11-05T22:46:27.546Z,17.60
2022-11-05T22:48:56.340Z,16.70
2022-11-05T22:51:26.289Z,17.13
2022-11-05T22:53:54.966Z,16.73
2022-11-05T22:56:23.991Z,15.82
2022-11-05T22:58:51.773Z,15.05
2022-11-05T23:01:20.636Z,15.90
2022-11-05T23:03:49.884Z,16.52
2022-11-05T23:06:38.303Z,14.68
2022-11-05T23:09:36.020Z,15.93
2022-11-05T23:12:05.252Z,15.10
2022-11-05T23:14:32.593Z,15.30
2022-11-05T23:17:18.009Z,14.80
2022-11-05T23:20:03.548Z,15.95
2022-11-05T23:22:50.283Z,15.50
2022-11-05T23:25:21.770Z,15.00
2022-11-05T23:27:51.268Z,15.65
2022-11-05T23:30:26.119Z,16.48
2022-11-05T23:32:56.041Z,15.80
2022-11-05T23:35:43.071Z,16.00
2022-11-05T23:38:28.784Z,15.75
2022-11-05T23:41:19.399Z,17.55
2022-11-05T23:44:04.930Z,17.40
2022-11-05T23:46:50.933Z,16.45
2022-11-05T23:49:18.162Z,18.33
2022-11-05T23:51:45.169Z,17.35
2022-11-05T23:54:12.263Z,16.60
2022-11-05T23:56:39.409Z,18.17
2022-11-05T23:59:06.537Z,16.92
